createdAt,value
2018-11-01T00:00:56.755Z,17.03
2018-11-01T00:03:24.446Z,14.90
2018-11-01T00:05:52.180Z,14.30
2018-11-01T00:08:20.222Z,13.53
2018-11-01T00:10:47.954Z,16.07
2018-11-01T00:13:16.612Z,16.70
2018-11-01T00:15:44.333Z,16.07
2018-11-01T00:18:12.058Z,12.37
2018-11-01T00:20:39.777Z,15.03
2018-11-01T00:23:07.518Z,12.53
2018-11-01T00:25:35.247Z,13.60
2018-11-01T00:28:02.962Z,15.50
2018-11-01T00:30:30.694Z,13.03
2018-11-01T00:32:58.398Z,15.03
2018-11-01T00:35:26.133Z,15.30
2018-11-01T00:37:53.857Z,12.43
2018-11-01T00:40:21.578Z,14.67
2018-11-01T00:42:49.323Z,17.77
2018-11-01T00:45:17.047Z,15.47
2018-11-01T00:47:44.802Z,15.00
2018-11-01T00:50:13.799Z,13.40
2018-11-01T00:52:41.945Z,15.40
2018-11-01T00:55:10.754Z,11.60
2018-11-01T00:57:38.886Z,14.23
2018-11-01T01:00:09.106Z,15.43
2018-11-01T01:02:36.817Z,15.00
2018-11-01T01:05:05.443Z,16.20
2018-11-01T01:07:33.183Z,16.03
2018-11-01T01:10:00.924Z,16.00
2018-11-01T01:12:28.687Z,17.00
2018-11-01T01:14:56.458Z,17.00
2018-11-01T01:17:24.174Z,13.83
2018-11-01T01:19:52.010Z,14.20
2018-11-01T01:22:19.745Z,15.83
2018-11-01T01:24:47.502Z,14.20
2018-11-01T01:27:15.266Z,16.40
2018-11-01T01:29:42.989Z,15.33
2018-11-01T01:32:10.794Z,13.77
2018-11-01T01:34:38.544Z,15.50
2018-11-01T01:37:06.382Z,18.20
2018-11-01T01:39:34.139Z,16.20
2018-11-01T01:42:01.861Z,11.50
2018-11-01T01:44:29.577Z,14.40
2018-11-01T01:46:57.315Z,12.23
2018-11-01T01:49:25.298Z,14.23
2018-11-01T01:51:53.028Z,13.83
2018-11-01T01:54:20.731Z,13.83
2018-11-01T01:56:53.879Z,15.73
2018-11-01T01:59:21.602Z,11.07
2018-11-01T02:01:49.318Z,11.13
2018-11-01T02:04:17.029Z,13.30
2018-11-01T02:06:44.758Z,13.00
2018-11-01T02:09:13.031Z,10.30
2018-11-01T02:11:42.263Z,10.90
2018-11-01T02:14:09.982Z,12.53
2018-11-01T02:16:37.760Z,20.73
2018-11-01T02:19:06.050Z,12.50
2018-11-01T02:21:33.818Z,12.37
2018-11-01T02:24:01.557Z,14.03
2018-11-01T02:26:29.394Z,12.20
2018-11-01T02:28:57.156Z,11.37
2018-11-01T02:31:24.994Z,11.53
2018-11-01T02:33:52.722Z,13.27
2018-11-01T02:36:20.452Z,13.10
2018-11-01T02:38:48.330Z,14.53
2018-11-01T02:41:15.987Z,14.40
2018-11-01T02:43:43.711Z,14.83
2018-11-01T02:46:11.430Z,12.00
2018-11-01T02:48:39.199Z,10.83
2018-11-01T02:51:06.954Z,16.60
2018-11-01T02:53:34.704Z,12.40
2018-11-01T02:56:02.441Z,15.70
2018-11-01T02:58:30.164Z,11.03
2018-11-01T03:00:57.902Z,13.20
2018-11-01T03:03:25.624Z,11.80
2018-11-01T03:05:53.337Z,14.73
2018-11-01T03:08:21.095Z,13.50
2018-11-01T03:10:48.806Z,14.17
2018-11-01T03:13:16.523Z,11.33
2018-11-01T03:15:44.235Z,12.00
2018-11-01T03:18:11.967Z,13.57
2018-11-01T03:20:39.703Z,16.57
2018-11-01T03:23:07.443Z,13.40
2018-11-01T03:25:35.257Z,15.87
2018-11-01T03:28:02.992Z,15.37
2018-11-01T03:30:30.721Z,14.63
2018-11-01T03:32:58.455Z,19.50
2018-11-01T03:35:26.170Z,14.37
2018-11-01T03:37:53.898Z,13.07
2018-11-01T03:40:21.620Z,13.43
2018-11-01T03:42:49.341Z,12.43
2018-11-01T03:45:17.075Z,16.90
2018-11-01T03:47:44.830Z,12.33
2018-11-01T03:50:12.579Z,10.30
2018-11-01T03:52:40.318Z,13.57
2018-11-01T03:55:09.415Z,13.10
2018-11-01T03:57:37.140Z,13.77
2018-11-01T04:00:07.925Z,13.57
2018-11-01T04:02:35.652Z,13.50
2018-11-01T04:05:03.483Z,15.47
2018-11-01T04:07:31.195Z,12.50
2018-11-01T04:09:58.923Z,15.20
2018-11-01T04:12:26.658Z,15.50
2018-11-01T04:14:54.444Z,12.60
2018-11-01T04:17:22.115Z,12.27
2018-11-01T04:19:49.928Z,14.63
2018-11-01T04:22:17.644Z,14.60
2018-11-01T04:24:45.352Z,14.53
2018-11-01T04:27:13.075Z,14.60
2018-11-01T04:29:40.787Z,14.30
2018-11-01T04:32:08.574Z,17.77
2018-11-01T04:34:36.290Z,15.43
2018-11-01T04:37:04.016Z,17.20
2018-11-01T04:39:31.794Z,16.43
2018-11-01T04:41:59.594Z,14.80
2018-11-01T04:44:27.320Z,15.90
2018-11-01T04:46:55.063Z,16.93
2018-11-01T04:49:22.853Z,14.20
2018-11-01T04:51:50.606Z,15.50
2018-11-01T04:54:18.325Z,12.40
2018-11-01T04:56:46.066Z,13.57
2018-11-01T04:59:13.787Z,18.17
2018-11-01T05:01:41.529Z,15.23
2018-11-01T05:04:15.982Z,17.33
2018-11-01T05:06:43.744Z,13.70
2018-11-01T05:09:11.450Z,16.70
2018-11-01T05:11:39.175Z,21.00
2018-11-01T05:14:06.891Z,20.13
2018-11-01T05:16:34.666Z,16.67
2018-11-01T05:19:02.435Z,17.57
2018-11-01T05:21:30.157Z,17.30
2018-11-01T05:24:00.455Z,20.10
2018-11-01T05:26:28.591Z,20.20
2018-11-01T05:28:56.303Z,18.53
2018-11-01T05:31:24.011Z,20.80
2018-11-01T05:33:51.723Z,15.87
2018-11-01T05:36:19.451Z,20.63
2018-11-01T05:38:47.174Z,18.07
2018-11-01T05:41:14.903Z,21.17
2018-11-01T05:43:42.624Z,22.57
2018-11-01T05:46:10.382Z,18.17
2018-11-01T05:48:38.111Z,21.13
2018-11-01T05:51:05.863Z,26.00
2018-11-01T05:53:33.583Z,29.00
2018-11-01T05:56:01.343Z,15.53
2018-11-01T05:58:29.067Z,20.80
2018-11-01T06:00:56.807Z,18.70
2018-11-01T06:03:24.527Z,22.60
2018-11-01T06:05:52.284Z,17.03
2018-11-01T06:08:22.551Z,18.50
2018-11-01T06:10:50.296Z,18.67
2018-11-01T06:13:18.041Z,21.00
2018-11-01T06:15:45.782Z,19.07
2018-11-01T06:18:13.558Z,20.10
2018-11-01T06:20:41.331Z,28.73
2018-11-01T06:23:16.195Z,16.50
2018-11-01T06:25:43.977Z,22.73
2018-11-01T06:28:11.795Z,20.83
2018-11-01T06:30:39.541Z,23.47
2018-11-01T06:33:07.305Z,20.40
2018-11-01T06:35:38.292Z,29.43
2018-11-01T06:38:06.486Z,19.83
2018-11-01T06:40:34.229Z,23.17
2018-11-01T06:43:02.399Z,21.60
2018-11-01T06:45:30.192Z,20.00
2018-11-01T06:47:57.935Z,22.60
2018-11-01T06:50:25.685Z,18.70
2018-11-01T06:52:53.427Z,18.27
2018-11-01T06:55:21.217Z,19.40
2018-11-01T06:57:49.691Z,48.07
2018-11-01T07:00:17.410Z,24.17
2018-11-01T07:02:45.154Z,24.50
2018-11-01T07:05:12.912Z,23.03
2018-11-01T07:07:40.658Z,24.30
2018-11-01T07:10:10.632Z,31.00
2018-11-01T07:12:38.378Z,31.27
2018-11-01T07:15:07.416Z,26.67
2018-11-01T07:17:35.452Z,23.77
2018-11-01T07:20:03.195Z,22.43
2018-11-01T07:22:30.918Z,18.60
2018-11-01T07:24:58.681Z,25.53
2018-11-01T07:27:26.559Z,18.77
2018-11-01T07:29:54.291Z,25.63
2018-11-01T07:32:22.071Z,29.60
2018-11-01T07:34:49.806Z,24.13
2018-11-01T07:37:17.560Z,28.23
2018-11-01T07:39:45.291Z,27.20
2018-11-01T07:42:13.023Z,26.93
2018-11-01T07:44:40.755Z,29.00
2018-11-01T07:47:08.487Z,26.87
2018-11-01T07:49:36.224Z,29.30
2018-11-01T07:52:04.062Z,34.50
2018-11-01T07:54:31.798Z,33.13
2018-11-01T07:56:59.598Z,31.67
2018-11-01T07:59:27.350Z,32.57
2018-11-01T08:01:55.089Z,31.83
2018-11-01T08:04:22.820Z,36.00
2018-11-01T08:06:50.554Z,41.07
2018-11-01T08:09:18.356Z,31.80
2018-11-01T08:11:46.173Z,32.90
2018-11-01T08:14:13.879Z,30.63
2018-11-01T08:16:41.630Z,31.87
2018-11-01T08:19:09.376Z,27.93
2018-11-01T08:21:37.110Z,29.43
2018-11-01T08:24:05.061Z,34.37
2018-11-01T08:26:32.801Z,29.37
2018-11-01T08:29:00.574Z,31.27
2018-11-01T08:31:28.328Z,29.83
2018-11-01T08:33:56.463Z,35.77
2018-11-01T08:36:24.786Z,25.13
2018-11-01T08:38:52.565Z,29.63
2018-11-01T08:41:20.307Z,30.93
2018-11-01T08:43:48.047Z,29.87
2018-11-01T08:46:15.823Z,32.93
2018-11-01T08:48:43.590Z,36.43
2018-11-01T08:51:12.257Z,34.47
2018-11-01T08:53:39.991Z,41.70
2018-11-01T08:56:07.766Z,37.70
2018-11-01T08:58:35.474Z,40.63
2018-11-01T09:01:03.235Z,38.03
2018-11-01T09:03:30.981Z,42.63
2018-11-01T09:05:58.721Z,38.03
2018-11-01T09:08:26.467Z,39.70
2018-11-01T09:10:54.205Z,39.03
2018-11-01T09:13:22.083Z,39.03
2018-11-01T09:15:49.774Z,36.33
2018-11-01T09:18:17.553Z,38.73
2018-11-01T09:20:45.282Z,37.00
2018-11-01T09:23:13.051Z,37.90
2018-11-01T09:25:40.804Z,32.60
2018-11-01T09:28:08.590Z,36.77
2018-11-01T09:30:36.366Z,35.70
2018-11-01T09:33:04.195Z,36.50
2018-11-01T09:35:31.989Z,41.50
2018-11-01T09:37:59.714Z,38.87
2018-11-01T09:40:27.459Z,47.10
2018-11-01T09:42:55.201Z,38.60
2018-11-01T09:45:22.946Z,44.40
2018-11-01T09:47:50.869Z,34.30
2018-11-01T09:50:18.530Z,37.37
2018-11-01T09:52:46.307Z,38.07
2018-11-01T09:55:14.062Z,32.77
2018-11-01T09:57:41.823Z,35.20
2018-11-01T10:00:11.174Z,32.37
2018-11-01T10:02:38.966Z,31.20
2018-11-01T10:05:07.591Z,33.17
2018-11-01T10:07:35.421Z,31.03
2018-11-01T10:10:03.424Z,29.67
2018-11-01T10:12:31.164Z,28.83
2018-11-01T10:14:58.990Z,26.73
2018-11-01T10:17:27.022Z,28.23
2018-11-01T10:19:54.487Z,26.00
2018-11-01T10:22:22.337Z,24.80
2018-11-01T10:24:50.197Z,33.73
2018-11-01T10:27:19.516Z,25.97
2018-11-01T10:29:45.684Z,21.83
2018-11-01T10:32:13.419Z,23.93
2018-11-01T10:34:41.196Z,23.90
2018-11-01T10:37:08.959Z,25.10
2018-11-01T10:39:36.679Z,25.07
2018-11-01T10:42:04.750Z,21.37
2018-11-01T10:44:32.481Z,22.50
2018-11-01T10:47:00.249Z,22.43
2018-11-01T10:49:27.995Z,22.00
2018-11-01T10:51:55.735Z,23.87
2018-11-01T10:54:23.695Z,22.73
2018-11-01T10:56:51.338Z,23.87
2018-11-01T10:59:19.195Z,22.20
2018-11-01T11:01:52.489Z,19.80
2018-11-01T11:04:20.251Z,21.97
2018-11-01T11:06:47.958Z,21.83
2018-11-01T11:09:15.695Z,19.57
2018-11-01T11:11:43.475Z,20.60
2018-11-01T11:14:11.513Z,18.57
2018-11-01T11:16:39.270Z,19.63
2018-11-01T11:19:07.031Z,17.20
2018-11-01T11:21:34.798Z,18.83
2018-11-01T11:24:02.627Z,18.53
2018-11-01T11:26:30.378Z,24.53
2018-11-01T11:28:58.246Z,18.97
2018-11-01T11:31:25.994Z,24.73
2018-11-01T11:33:54.035Z,21.57
2018-11-01T11:36:21.902Z,20.97
2018-11-01T11:38:49.670Z,22.13
2018-11-01T11:41:17.427Z,20.30
2018-11-01T11:43:45.167Z,28.30
2018-11-01T11:46:12.947Z,22.67
2018-11-01T11:48:40.726Z,19.00
2018-11-01T11:51:08.459Z,20.77
2018-11-01T11:53:36.210Z,22.30
2018-11-01T11:56:03.972Z,18.27
2018-11-01T11:58:31.710Z,22.83
2018-11-01T12:00:59.531Z,19.43
2018-11-01T12:03:27.288Z,19.80
2018-11-01T12:05:55.334Z,18.93
2018-11-01T12:08:23.034Z,20.67
2018-11-01T12:10:50.775Z,25.53
2018-11-01T12:13:18.502Z,18.10
2018-11-01T12:15:46.280Z,23.50
2018-11-01T12:18:14.026Z,21.50
2018-11-01T12:20:41.779Z,21.17
2018-11-01T12:23:09.543Z,18.17
2018-11-01T12:25:37.266Z,22.27
2018-11-01T12:28:05.222Z,18.00
2018-11-01T12:30:32.957Z,17.37
2018-11-01T12:33:00.703Z,19.63
2018-11-01T12:35:28.513Z,22.07
2018-11-01T12:37:56.251Z,21.10
2018-11-01T12:40:23.994Z,25.70
2018-11-01T12:42:51.714Z,28.30
2018-11-01T12:45:19.446Z,20.40
2018-11-01T12:47:47.176Z,17.47
2018-11-01T12:50:15.075Z,22.73
2018-11-01T12:52:42.751Z,18.07
2018-11-01T12:55:10.828Z,19.43
2018-11-01T12:57:38.611Z,19.83
2018-11-01T13:00:07.641Z,20.83
2018-11-01T13:02:35.411Z,21.17
2018-11-01T13:05:03.163Z,20.73
2018-11-01T13:07:31.002Z,20.27
2018-11-01T13:09:58.751Z,19.93
2018-11-01T13:12:27.130Z,18.90
2018-11-01T13:14:55.235Z,19.47
2018-11-01T13:17:23.541Z,19.20
2018-11-01T13:19:51.591Z,24.40
2018-11-01T13:22:19.667Z,24.77
2018-11-01T13:24:47.761Z,21.83
2018-11-01T13:27:15.861Z,16.87
2018-11-01T13:29:43.666Z,26.63
2018-11-01T13:32:11.428Z,21.27
2018-11-01T13:34:39.200Z,21.33
2018-11-01T13:37:07.022Z,23.13
2018-11-01T13:39:34.829Z,19.80
2018-11-01T13:42:02.523Z,18.23
2018-11-01T13:44:30.264Z,21.13
2018-11-01T13:46:58.055Z,21.70
2018-11-01T13:49:25.804Z,18.93
2018-11-01T13:51:53.523Z,20.17
2018-11-01T13:54:21.294Z,20.57
2018-11-01T13:56:49.076Z,24.57
2018-11-01T13:59:16.819Z,21.43
2018-11-01T14:01:44.611Z,26.70
2018-11-01T14:04:12.347Z,20.87
2018-11-01T14:06:40.080Z,24.57
2018-11-01T14:09:08.586Z,22.40
2018-11-01T14:11:36.730Z,20.13
2018-11-01T14:14:05.376Z,23.90
2018-11-01T14:16:32.810Z,21.13
2018-11-01T14:19:00.666Z,21.37
2018-11-01T14:21:28.436Z,22.80
2018-11-01T14:23:56.221Z,22.90
2018-11-01T14:26:23.940Z,21.97
2018-11-01T14:28:52.339Z,25.70
2018-11-01T14:31:20.144Z,27.07
2018-11-01T14:33:47.907Z,26.83
2018-11-01T14:36:15.626Z,22.97
2018-11-01T14:38:43.367Z,26.03
2018-11-01T14:41:11.099Z,27.87
2018-11-01T14:43:38.838Z,24.10
2018-11-01T14:46:06.602Z,23.07
2018-11-01T14:48:34.372Z,23.80
2018-11-01T14:51:02.170Z,22.67
2018-11-01T14:53:30.913Z,23.33
2018-11-01T14:55:58.930Z,27.40
2018-11-01T14:58:26.978Z,21.90
2018-11-01T15:00:53.262Z,17.73
2018-11-01T15:03:21.082Z,23.03
2018-11-01T15:05:48.842Z,27.73
2018-11-01T15:08:16.590Z,19.93
2018-11-01T15:10:44.328Z,25.00
2018-11-01T15:13:12.168Z,30.03
2018-11-01T15:15:39.856Z,26.73
2018-11-01T15:18:07.767Z,20.17
2018-11-01T15:20:35.488Z,26.70
2018-11-01T15:23:03.293Z,26.23
2018-11-01T15:25:31.083Z,28.40
2018-11-01T15:27:58.831Z,31.03
2018-11-01T15:30:26.560Z,19.73
2018-11-01T15:32:54.291Z,30.90
2018-11-01T15:35:22.067Z,24.57
2018-11-01T15:37:49.841Z,23.03
2018-11-01T15:40:17.611Z,22.43
2018-11-01T15:42:45.410Z,32.20
2018-11-01T15:45:13.958Z,38.07
2018-11-01T15:47:42.151Z,40.83
2018-11-01T15:50:10.966Z,33.77
2018-11-01T15:52:38.715Z,32.83
2018-11-01T15:55:07.233Z,33.50
2018-11-01T15:57:35.457Z,34.50
2018-11-01T16:00:03.447Z,36.30
2018-11-01T16:02:31.233Z,45.43
2018-11-01T16:04:58.994Z,32.40
2018-11-01T16:07:26.819Z,32.83
2018-11-01T16:09:54.597Z,38.17
2018-11-01T16:12:22.458Z,35.87
2018-11-01T16:14:50.186Z,39.40
2018-11-01T16:17:17.966Z,34.40
2018-11-01T16:19:45.774Z,34.67
2018-11-01T16:22:13.486Z,30.23
2018-11-01T16:24:41.225Z,32.40
2018-11-01T16:27:09.125Z,34.80
2018-11-01T16:29:36.779Z,39.63
2018-11-01T16:32:04.780Z,41.97
2018-11-01T16:34:32.559Z,36.40
2018-11-01T16:37:00.362Z,39.50
2018-11-01T16:39:28.052Z,37.67
2018-11-01T16:41:55.882Z,31.80
2018-11-01T16:44:23.597Z,35.70
2018-11-01T16:46:51.331Z,37.13
2018-11-01T16:49:19.096Z,33.27
2018-11-01T16:51:46.823Z,34.77
2018-11-01T16:54:14.632Z,41.40
2018-11-01T16:56:42.359Z,41.13
2018-11-01T16:59:10.598Z,41.67
2018-11-01T17:01:38.335Z,42.00
2018-11-01T17:04:06.491Z,45.63
2018-11-01T17:06:34.303Z,44.37
2018-11-01T17:09:02.047Z,40.00
2018-11-01T17:11:29.814Z,38.87
2018-11-01T17:13:57.570Z,31.07
2018-11-01T17:16:25.319Z,36.70
2018-11-01T17:18:54.046Z,39.63
2018-11-01T17:21:21.803Z,35.23
2018-11-01T17:23:49.547Z,38.43
2018-11-01T17:26:17.302Z,34.80
2018-11-01T17:28:45.090Z,39.07
2018-11-01T17:31:12.822Z,36.87
2018-11-01T17:33:40.547Z,35.00
2018-11-01T17:36:08.435Z,40.00
2018-11-01T17:38:36.215Z,34.80
2018-11-01T17:41:04.148Z,35.43
2018-11-01T17:43:31.912Z,35.50
2018-11-01T17:45:59.695Z,32.43
2018-11-01T17:48:27.435Z,32.00
2018-11-01T17:50:55.173Z,34.60
2018-11-01T17:53:22.926Z,36.10
2018-11-01T17:55:50.715Z,32.10
2018-11-01T17:58:18.501Z,33.10
2018-11-01T18:00:46.275Z,33.00
2018-11-01T18:03:14.141Z,37.63
2018-11-01T18:05:41.891Z,35.40
2018-11-01T18:08:09.720Z,37.27
2018-11-01T18:10:37.545Z,34.40
2018-11-01T18:13:05.526Z,32.10
2018-11-01T18:15:33.529Z,39.17
2018-11-01T18:18:01.305Z,37.03
2018-11-01T18:20:29.054Z,37.43
2018-11-01T18:22:56.817Z,37.67
2018-11-01T18:25:24.616Z,40.30
2018-11-01T18:27:52.416Z,39.23
2018-11-01T18:30:20.228Z,38.50
2018-11-01T18:32:48.197Z,37.67
2018-11-01T18:35:15.743Z,37.27
2018-11-01T18:37:43.498Z,38.80
2018-11-01T18:40:17.072Z,36.93
2018-11-01T18:42:44.855Z,38.77
2018-11-01T18:45:13.814Z,35.27
2018-11-01T18:47:42.186Z,37.03
2018-11-01T18:50:11.583Z,39.67
2018-11-01T18:52:39.483Z,34.27
2018-11-01T18:55:08.493Z,37.43
2018-11-01T18:57:36.269Z,41.67
2018-11-01T19:00:04.600Z,41.67
2018-11-01T19:02:32.331Z,43.43
2018-11-01T19:05:00.075Z,41.90
2018-11-01T19:07:27.846Z,36.53
2018-11-01T19:09:55.607Z,38.03
2018-11-01T19:12:23.391Z,35.20
2018-11-01T19:14:51.150Z,38.87
2018-11-01T19:17:18.927Z,34.97
2018-11-01T19:19:46.677Z,34.73
2018-11-01T19:22:14.440Z,37.60
2018-11-01T19:24:42.168Z,43.50
2018-11-01T19:27:10.191Z,38.67
2018-11-01T19:29:37.683Z,39.20
2018-11-01T19:32:05.790Z,41.37
2018-11-01T19:34:33.716Z,40.43
2018-11-01T19:37:01.286Z,45.03
2018-11-01T19:39:29.042Z,43.33
2018-11-01T19:41:56.770Z,38.43
2018-11-01T19:44:24.501Z,39.13
2018-11-01T19:46:52.291Z,41.13
2018-11-01T19:49:20.026Z,42.57
2018-11-01T19:51:47.783Z,41.37
2018-11-01T19:54:15.630Z,43.00
2018-11-01T19:56:43.291Z,45.93
2018-11-01T19:59:11.034Z,48.23
2018-11-01T20:01:38.915Z,43.73
2018-11-01T20:04:06.730Z,44.50
2018-11-01T20:06:34.462Z,43.00
2018-11-01T20:09:02.385Z,39.43
2018-11-01T20:11:30.062Z,45.03
2018-11-01T20:13:57.804Z,41.23
2018-11-01T20:16:25.558Z,44.80
2018-11-01T20:18:53.350Z,40.60
2018-11-01T20:21:21.170Z,38.17
2018-11-01T20:23:48.918Z,42.70
2018-11-01T20:26:16.678Z,43.53
2018-11-01T20:28:44.473Z,43.70
2018-11-01T20:31:12.245Z,43.07
2018-11-01T20:33:46.571Z,41.50
2018-11-01T20:36:14.263Z,42.67
2018-11-01T20:38:42.126Z,43.73
2018-11-01T20:41:09.809Z,44.30
2018-11-01T20:43:37.651Z,43.33
2018-11-01T20:46:05.400Z,44.30
2018-11-01T20:48:33.270Z,45.57
2018-11-01T20:51:01.006Z,37.53
2018-11-01T20:53:28.760Z,43.63
2018-11-01T20:55:56.499Z,45.40
2018-11-01T20:58:24.246Z,45.93
2018-11-01T21:00:52.174Z,45.70
2018-11-01T21:03:19.925Z,43.93
2018-11-01T21:05:47.687Z,43.63
2018-11-01T21:08:15.606Z,44.13
2018-11-01T21:10:43.418Z,48.73
2018-11-01T21:13:11.116Z,49.03
2018-11-01T21:15:38.951Z,52.90
2018-11-01T21:18:06.688Z,58.70
2018-11-01T21:20:35.000Z,53.37
2018-11-01T21:23:02.751Z,52.00
2018-11-01T21:25:30.487Z,51.93
2018-11-01T21:27:58.227Z,55.63
2018-11-01T21:30:25.974Z,53.40
2018-11-01T21:32:53.725Z,56.63
2018-11-01T21:35:21.589Z,58.83
2018-11-01T21:37:49.234Z,59.97
2018-11-01T21:40:16.975Z,59.73
2018-11-01T21:42:44.860Z,54.33
2018-11-01T21:45:13.428Z,53.40
2018-11-01T21:47:41.724Z,63.00
2018-11-01T21:50:09.974Z,59.13
2018-11-01T21:52:37.741Z,56.60
2018-11-01T21:55:06.111Z,56.17
2018-11-01T21:57:33.845Z,54.43
2018-11-01T22:00:02.404Z,55.83
2018-11-01T22:02:30.251Z,56.47
2018-11-01T22:04:57.980Z,53.33
2018-11-01T22:07:25.742Z,56.50
2018-11-01T22:09:53.646Z,54.80
2018-11-01T22:12:21.278Z,54.87
2018-11-01T22:14:49.027Z,51.97
2018-11-01T22:17:16.796Z,58.57
2018-11-01T22:19:44.535Z,53.20
2018-11-01T22:22:12.275Z,58.50
2018-11-01T22:24:40.023Z,58.97
2018-11-01T22:27:07.827Z,63.10
2018-11-01T22:29:35.598Z,71.90
2018-11-01T22:32:03.363Z,68.40
2018-11-01T22:34:31.790Z,73.00
2018-11-01T22:36:59.515Z,70.33
2018-11-01T22:39:27.277Z,89.67
2018-11-01T22:41:55.043Z,95.07
2018-11-01T22:44:22.799Z,94.93
2018-11-01T22:46:50.623Z,88.13
2018-11-01T22:49:18.404Z,88.80
2018-11-01T22:51:46.152Z,92.13
2018-11-01T22:54:13.887Z,83.77
2018-11-01T22:56:41.636Z,101.60
2018-11-01T22:59:09.503Z,109.97
2018-11-01T23:01:37.442Z,108.93
2018-11-01T23:04:05.442Z,119.87
2018-11-01T23:06:33.186Z,99.60
2018-11-01T23:09:00.929Z,106.87
2018-11-01T23:11:29.519Z,95.50
2018-11-01T23:13:57.294Z,92.03
2018-11-01T23:16:25.078Z,99.83
2018-11-01T23:18:52.862Z,105.73
2018-11-01T23:21:20.599Z,116.10
2018-11-01T23:23:48.343Z,106.20
2018-11-01T23:26:16.096Z,93.17
2018-11-01T23:28:43.873Z,91.23
2018-11-01T23:31:11.603Z,87.60
2018-11-01T23:33:39.389Z,89.27
2018-11-01T23:36:06.529Z,84.97
2018-11-01T23:38:39.816Z,75.47
2018-11-01T23:41:12.971Z,73.70
2018-11-01T23:43:46.162Z,64.70
2018-11-01T23:46:19.499Z,61.80
2018-11-01T23:48:50.071Z,55.23
2018-11-01T23:51:18.727Z,56.40
2018-11-01T23:53:48.390Z,60.50
2018-11-01T23:56:16.318Z,56.83
2018-11-01T23:58:44.111Z,62.17
